createdAt,value
2023-04-20T00:02:07.743Z,100145.03
2023-04-20T00:04:35.001Z,100149.44
2023-04-20T00:07:02.190Z,100138.00
2023-04-20T00:09:29.307Z,100143.44
2023-04-20T00:11:56.576Z,100140.19
2023-04-20T00:14:23.671Z,100142.03
2023-04-20T00:16:51.406Z,100143.66
2023-04-20T00:19:18.789Z,100138.09
2023-04-20T00:21:46.542Z,100136.75
2023-04-20T00:24:13.680Z,100138.78
2023-04-20T00:26:40.788Z,100137.22
2023-04-20T00:29:07.843Z,100132.94
2023-04-20T00:31:34.875Z,100141.25
2023-04-20T00:34:01.938Z,100143.25
2023-04-20T00:36:30.134Z,100135.94
2023-04-20T00:38:59.710Z,100129.53
2023-04-20T00:41:28.887Z,100138.66
2023-04-20T00:43:56.188Z,100132.13
2023-04-20T00:46:23.632Z,100131.19
2023-04-20T00:48:54.258Z,100131.41
2023-04-20T00:51:22.651Z,100129.09
2023-04-20T00:53:49.866Z,100124.72
2023-04-20T00:56:17.178Z,100118.75
2023-04-20T00:58:44.269Z,100120.13
2023-04-20T01:01:12.952Z,100119.19
2023-04-20T01:03:40.762Z,100123.38
2023-04-20T01:06:09.049Z,100117.91
2023-04-20T01:08:36.183Z,100118.81
2023-04-20T01:11:04.427Z,100108.59
2023-04-20T01:13:31.658Z,100111.41
2023-04-20T01:16:00.649Z,100119.06
2023-04-20T01:18:27.912Z,100118.84
2023-04-20T01:20:55.078Z,100115.47
2023-04-20T01:23:22.288Z,100111.88
2023-04-20T01:25:49.437Z,100111.53
2023-04-20T01:28:19.593Z,100115.31
2023-04-20T01:30:46.869Z,100114.97
2023-04-20T01:33:13.924Z,100112.09
2023-04-20T01:35:43.401Z,100114.56
2023-04-20T01:38:10.551Z,100121.50
2023-04-20T01:40:39.589Z,100110.53
2023-04-20T01:43:06.917Z,100106.94
2023-04-20T01:45:34.261Z,100101.94
2023-04-20T01:48:01.798Z,100099.25
2023-04-20T01:50:29.078Z,100095.53
2023-04-20T01:52:56.248Z,100106.31
2023-04-20T01:55:23.288Z,100120.56
2023-04-20T01:57:52.771Z,100119.22
2023-04-20T02:00:20.073Z,100118.53
2023-04-20T02:02:47.254Z,100127.53
2023-04-20T02:05:16.004Z,100120.22
2023-04-20T02:07:43.398Z,100128.91
2023-04-20T02:10:11.066Z,100123.38
2023-04-20T02:12:38.701Z,100116.94
2023-04-20T02:15:07.027Z,100121.13
2023-04-20T02:17:34.233Z,100120.28
2023-04-20T02:20:01.314Z,100121.66
2023-04-20T02:22:28.453Z,100126.06
2023-04-20T02:24:55.495Z,100126.81
2023-04-20T02:27:22.611Z,100123.22
2023-04-20T02:29:49.664Z,100124.25
2023-04-20T02:32:16.895Z,100111.91
2023-04-20T02:34:43.988Z,100113.59
2023-04-20T02:37:11.105Z,100109.56
2023-04-20T02:39:38.165Z,100107.91
2023-04-20T02:42:05.966Z,100101.00
2023-04-20T02:44:33.744Z,100103.66
2023-04-20T02:47:01.892Z,100114.19
2023-04-20T02:49:29.768Z,100100.13
2023-04-20T02:51:57.816Z,100103.28
2023-04-20T02:54:25.015Z,100100.53
2023-04-20T02:56:52.324Z,100099.16
2023-04-20T02:59:19.575Z,100098.63
2023-04-20T03:02:07.166Z,100105.16
2023-04-20T03:04:34.582Z,100098.03
2023-04-20T03:07:16.649Z,100099.78
2023-04-20T03:09:44.368Z,100094.41
2023-04-20T03:12:24.933Z,100105.41
2023-04-20T03:14:58.320Z,100107.47
2023-04-20T03:17:38.316Z,100105.63
2023-04-20T03:20:09.269Z,100111.28
2023-04-20T03:22:37.363Z,100102.53
2023-04-20T03:25:06.586Z,100101.25
2023-04-20T03:27:55.449Z,100101.72
2023-04-20T03:30:22.551Z,100103.09
2023-04-20T03:32:55.819Z,100095.78
2023-04-20T03:35:23.120Z,100086.63
2023-04-20T03:37:50.367Z,100094.78
2023-04-20T03:40:17.503Z,100102.53
2023-04-20T03:42:44.578Z,100100.69
2023-04-20T03:45:12.193Z,100108.25
2023-04-20T03:47:39.335Z,100106.59
2023-04-20T03:50:07.107Z,100102.66
2023-04-20T03:52:34.390Z,100108.09
2023-04-20T03:55:05.351Z,100107.75
2023-04-20T03:57:34.113Z,100100.06
2023-04-20T04:00:04.793Z,100103.19
2023-04-20T04:02:45.843Z,100107.41
2023-04-20T04:05:16.068Z,100103.13
2023-04-20T04:07:43.206Z,100100.94
2023-04-20T04:10:12.068Z,100103.44
2023-04-20T04:12:39.561Z,100107.78
2023-04-20T04:15:08.210Z,100100.00
2023-04-20T04:17:41.451Z,100108.16
2023-04-20T04:20:09.280Z,100112.34
2023-04-20T04:22:37.308Z,100105.06
2023-04-20T04:25:23.443Z,100105.41
2023-04-20T04:27:51.576Z,100108.38
2023-04-20T04:30:20.098Z,100110.75
2023-04-20T04:32:49.266Z,100112.66
2023-04-20T04:35:17.258Z,100113.00
2023-04-20T04:37:44.377Z,100125.03
2023-04-20T04:40:11.820Z,100121.88
2023-04-20T04:42:39.619Z,100124.09
2023-04-20T04:45:10.488Z,100132.41
2023-04-20T04:47:43.920Z,100129.56
2023-04-20T04:50:11.679Z,100133.97
2023-04-20T04:52:38.978Z,100123.91
2023-04-20T04:55:09.211Z,100131.50
2023-04-20T04:57:36.476Z,100132.19
2023-04-20T05:00:08.067Z,100133.00
2023-04-20T05:02:35.986Z,100130.88
2023-04-20T05:05:03.422Z,100136.31
2023-04-20T05:07:30.771Z,100131.56
2023-04-20T05:09:57.811Z,100131.66
2023-04-20T05:12:25.918Z,100126.94
2023-04-20T05:14:53.574Z,100139.75
2023-04-20T05:17:20.926Z,100135.97
2023-04-20T05:19:48.072Z,100133.78
2023-04-20T05:22:15.481Z,100133.91
2023-04-20T05:24:42.648Z,100133.66
2023-04-20T05:27:09.801Z,100141.97
2023-04-20T05:29:38.152Z,100142.00
2023-04-20T05:32:05.496Z,100132.19
2023-04-20T05:34:32.735Z,100133.75
2023-04-20T05:37:00.140Z,100138.34
2023-04-20T05:39:27.293Z,100134.13
2023-04-20T05:41:54.351Z,100140.31
2023-04-20T05:44:21.409Z,100136.84
2023-04-20T05:46:48.493Z,100142.91
2023-04-20T05:49:15.968Z,100143.63
2023-04-20T05:51:43.191Z,100147.09
2023-04-20T05:54:11.227Z,100150.84
2023-04-20T05:56:38.407Z,100146.59
2023-04-20T05:59:05.691Z,100148.44
2023-04-20T06:01:32.809Z,100148.50
2023-04-20T06:04:00.136Z,100152.56
2023-04-20T06:06:28.088Z,100143.84
2023-04-20T06:08:55.329Z,100147.94
2023-04-20T06:11:22.509Z,100149.03
2023-04-20T06:13:49.581Z,100144.88
2023-04-20T06:16:16.801Z,100143.16
2023-04-20T06:18:44.201Z,100140.38
2023-04-20T06:21:11.627Z,100142.78
2023-04-20T06:23:38.874Z,100138.50
2023-04-20T06:26:08.892Z,100137.81
2023-04-20T06:28:39.366Z,100135.34
2023-04-20T06:31:06.671Z,100132.28
2023-04-20T06:33:33.991Z,100144.09
2023-04-20T06:36:01.130Z,100145.16
2023-04-20T06:38:28.442Z,100142.41
2023-04-20T06:40:57.623Z,100146.09
2023-04-20T06:43:24.751Z,100147.31
2023-04-20T06:45:51.850Z,100140.03
2023-04-20T06:48:31.406Z,100144.66
2023-04-20T06:50:59.616Z,100139.25
2023-04-20T06:53:26.683Z,100134.59
2023-04-20T06:55:57.130Z,100147.75
2023-04-20T06:58:24.468Z,100145.00
2023-04-20T07:00:51.548Z,100142.50
2023-04-20T07:03:19.514Z,100146.78
2023-04-20T07:05:47.043Z,100146.97
2023-04-20T07:08:16.147Z,100147.78
2023-04-20T07:10:43.484Z,100150.56
2023-04-20T07:13:10.722Z,100149.69
2023-04-20T07:15:37.928Z,100152.66
2023-04-20T07:18:05.098Z,100154.00
2023-04-20T07:20:32.496Z,100148.34
2023-04-20T07:22:59.696Z,100148.88
2023-04-20T07:25:27.432Z,100150.59
2023-04-20T07:27:54.585Z,100151.88
2023-04-20T07:30:21.699Z,100155.91
2023-04-20T07:32:49.468Z,100158.16
2023-04-20T07:35:16.704Z,100152.03
2023-04-20T07:37:43.970Z,100157.44
2023-04-20T07:40:11.497Z,100156.31
2023-04-20T07:42:38.655Z,100168.34
2023-04-20T07:45:07.192Z,100157.59
2023-04-20T07:47:35.590Z,100163.53
2023-04-20T07:50:03.845Z,100159.38
2023-04-20T07:52:31.011Z,100161.59
2023-04-20T07:54:59.469Z,100166.03
2023-04-20T07:57:27.412Z,100149.38
2023-04-20T07:59:54.513Z,100159.28
2023-04-20T08:02:21.678Z,100166.88
2023-04-20T08:04:50.024Z,100157.50
2023-04-20T08:07:17.962Z,100167.53
2023-04-20T08:09:45.262Z,100163.53
2023-04-20T08:12:12.409Z,100165.69
2023-04-20T08:14:40.655Z,100164.22
2023-04-20T08:17:08.562Z,100154.25
2023-04-20T08:19:36.279Z,100161.97
2023-04-20T08:22:04.549Z,100156.00
2023-04-20T08:24:31.958Z,100152.69
2023-04-20T08:26:59.470Z,100153.53
2023-04-20T08:29:26.804Z,100147.06
2023-04-20T08:31:53.927Z,100147.28
2023-04-20T08:34:21.058Z,100154.38
2023-04-20T08:36:48.328Z,100156.09
2023-04-20T08:39:20.731Z,100150.31
2023-04-20T08:41:48.245Z,100154.28
2023-04-20T08:44:15.708Z,100157.75
2023-04-20T08:46:47.192Z,100156.69
2023-04-20T08:49:17.976Z,100148.50
2023-04-20T08:51:46.513Z,100154.88
2023-04-20T08:54:14.597Z,100147.81
2023-04-20T08:56:46.768Z,100149.69
2023-04-20T08:59:14.709Z,100147.28
2023-04-20T09:01:43.266Z,100156.00
2023-04-20T09:04:21.373Z,100151.22
2023-04-20T09:06:51.575Z,100149.66
2023-04-20T09:09:20.200Z,100144.72
2023-04-20T09:11:48.044Z,100150.91
2023-04-20T09:14:17.194Z,100151.09
2023-04-20T09:17:02.009Z,100156.50
2023-04-20T09:19:30.710Z,100153.22
2023-04-20T09:21:59.916Z,100147.94
2023-04-20T09:24:35.317Z,100148.63
2023-04-20T09:27:14.634Z,100140.56
2023-04-20T09:29:41.841Z,100144.34
2023-04-20T09:32:09.110Z,100158.38
2023-04-20T09:34:45.728Z,100152.78
2023-04-20T09:37:16.718Z,100160.06
2023-04-20T09:39:45.676Z,100159.63
2023-04-20T09:42:14.057Z,100157.59
2023-04-20T09:44:41.515Z,100155.75
2023-04-20T09:47:09.804Z,100159.97
2023-04-20T09:49:45.860Z,100163.91
2023-04-20T09:52:16.261Z,100165.72
2023-04-20T09:54:44.805Z,100165.81
2023-04-20T09:57:13.389Z,100160.97
2023-04-20T09:59:43.829Z,100153.66
2023-04-20T10:02:12.692Z,100159.38
2023-04-20T10:04:55.795Z,100162.47
2023-04-20T10:07:27.395Z,100152.84
2023-04-20T10:10:24.205Z,100162.19
2023-04-20T10:12:53.577Z,100156.34
2023-04-20T10:15:24.485Z,100151.56
2023-04-20T10:17:51.783Z,100158.94
2023-04-20T10:20:21.539Z,100154.94
2023-04-20T10:22:48.749Z,100153.91
2023-04-20T10:25:19.532Z,100157.25
2023-04-20T10:27:58.039Z,100162.88
2023-04-20T10:30:27.136Z,100173.41
2023-04-20T10:33:07.025Z,100164.94
2023-04-20T10:35:55.320Z,100162.34
2023-04-20T10:38:36.148Z,100165.91
2023-04-20T10:41:13.502Z,100169.94
2023-04-20T10:43:43.720Z,100177.72
2023-04-20T10:46:15.478Z,100163.41
2023-04-20T10:49:01.442Z,100164.47
2023-04-20T10:51:28.775Z,100154.38
2023-04-20T10:54:06.841Z,100163.00
2023-04-20T10:56:55.337Z,100149.41
2023-04-20T10:59:25.084Z,100159.97
2023-04-20T11:01:52.670Z,100156.09
2023-04-20T11:04:31.281Z,100149.19
2023-04-20T11:07:07.295Z,100151.22
2023-04-20T11:09:35.837Z,100150.59
2023-04-20T11:12:08.212Z,100155.53
2023-04-20T11:14:38.462Z,100148.72
2023-04-20T11:17:06.567Z,100154.31
2023-04-20T11:19:35.963Z,100153.22
2023-04-20T11:22:06.730Z,100156.28
2023-04-20T11:24:35.955Z,100150.84
2023-04-20T11:27:05.052Z,100142.53
2023-04-20T11:29:34.258Z,100148.09
2023-04-20T11:32:09.775Z,100157.91
2023-04-20T11:34:38.673Z,100153.06
2023-04-20T11:37:11.111Z,100146.34
2023-04-20T11:39:38.558Z,100143.34
2023-04-20T11:42:06.565Z,100152.03
2023-04-20T11:44:36.759Z,100138.47
2023-04-20T11:47:04.149Z,100140.06
2023-04-20T11:49:31.576Z,100147.47
2023-04-20T11:51:58.770Z,100138.78
2023-04-20T11:54:27.438Z,100145.66
2023-04-20T11:56:54.511Z,100140.63
2023-04-20T11:59:21.958Z,100144.44
2023-04-20T12:01:49.058Z,100147.25
2023-04-20T12:04:16.635Z,100146.28
2023-04-20T12:06:44.212Z,100147.31
2023-04-20T12:09:11.462Z,100148.44
2023-04-20T12:11:38.575Z,100136.09
2023-04-20T12:14:05.737Z,100148.59
2023-04-20T12:16:32.919Z,100141.16
2023-04-20T12:19:00.122Z,100160.44
2023-04-20T12:21:27.520Z,100153.03
2023-04-20T12:23:54.592Z,100149.91
2023-04-20T12:26:23.771Z,100142.84
2023-04-20T12:28:54.213Z,100141.38
2023-04-20T12:31:21.598Z,100145.00
2023-04-20T12:33:48.672Z,100141.81
2023-04-20T12:36:15.737Z,100143.91
2023-04-20T12:38:42.920Z,100142.66
2023-04-20T12:41:14.877Z,100128.44
2023-04-20T12:43:42.024Z,100140.44
2023-04-20T12:46:09.146Z,100143.47
2023-04-20T12:48:36.314Z,100138.88
2023-04-20T12:51:03.696Z,100136.59
2023-04-20T12:53:30.826Z,100136.22
2023-04-20T12:56:01.357Z,100126.09
2023-04-20T12:58:28.861Z,100136.03
2023-04-20T13:00:56.324Z,100133.06
2023-04-20T13:03:23.842Z,100137.66
2023-04-20T13:05:51.320Z,100138.22
2023-04-20T13:08:19.893Z,100130.91
2023-04-20T13:10:47.151Z,100135.25
2023-04-20T13:13:14.319Z,100132.19
2023-04-20T13:15:41.481Z,100125.72
2023-04-20T13:18:10.011Z,100126.28
2023-04-20T13:20:37.427Z,100125.75
2023-04-20T13:23:04.759Z,100127.16
2023-04-20T13:25:33.566Z,100127.53
2023-04-20T13:28:02.105Z,100132.84
2023-04-20T13:30:29.403Z,100140.13
2023-04-20T13:32:56.612Z,100132.94
2023-04-20T13:35:24.567Z,100130.72
2023-04-20T13:37:51.895Z,100141.59
2023-04-20T13:40:19.020Z,100136.09
2023-04-20T13:42:46.103Z,100136.63
2023-04-20T13:45:13.624Z,100133.50
2023-04-20T13:47:41.047Z,100141.25
2023-04-20T13:50:09.491Z,100142.44
2023-04-20T13:52:37.365Z,100138.84
2023-04-20T13:55:05.539Z,100146.38
2023-04-20T13:57:32.782Z,100131.94
2023-04-20T14:00:01.299Z,100139.13
2023-04-20T14:02:33.431Z,100145.59
2023-04-20T14:05:00.938Z,100136.56
2023-04-20T14:07:27.992Z,100130.59
2023-04-20T14:09:56.701Z,100138.50
2023-04-20T14:12:24.026Z,100130.94
2023-04-20T14:14:51.219Z,100133.63
2023-04-20T14:17:18.320Z,100133.84
2023-04-20T14:19:45.597Z,100133.94
2023-04-20T14:22:12.667Z,100144.38
2023-04-20T14:24:40.834Z,100139.81
2023-04-20T14:27:07.925Z,100146.13
2023-04-20T14:29:34.983Z,100148.69
2023-04-20T14:32:02.107Z,100138.44
2023-04-20T14:34:29.213Z,100150.13
2023-04-20T14:36:56.366Z,100145.75
2023-04-20T14:39:26.531Z,100147.50
2023-04-20T14:41:53.709Z,100159.91
2023-04-20T14:44:20.947Z,100149.16
2023-04-20T14:46:48.249Z,100151.41
2023-04-20T14:49:15.517Z,100143.50
2023-04-20T14:51:42.636Z,100132.09
2023-04-20T14:54:09.771Z,100147.47
2023-04-20T14:56:36.881Z,100157.03
2023-04-20T14:59:04.008Z,100153.84
2023-04-20T15:01:31.112Z,100163.34
2023-04-20T15:03:58.521Z,100162.38
2023-04-20T15:06:25.874Z,100166.25
2023-04-20T15:08:54.730Z,100169.72
2023-04-20T15:11:21.970Z,100177.09
2023-04-20T15:13:49.580Z,100184.63
2023-04-20T15:16:16.786Z,100174.78
2023-04-20T15:18:43.896Z,100183.28
2023-04-20T15:21:11.143Z,100194.00
2023-04-20T15:23:38.310Z,100196.59
2023-04-20T15:26:06.984Z,100192.22
2023-04-20T15:28:34.037Z,100197.72
2023-04-20T15:31:01.112Z,100196.03
2023-04-20T15:33:28.192Z,100200.88
2023-04-20T15:35:55.353Z,100203.00
2023-04-20T15:38:22.468Z,100221.19
2023-04-20T15:40:54.265Z,100217.88
2023-04-20T15:43:21.794Z,100229.22
2023-04-20T15:45:50.025Z,100221.63
2023-04-20T15:48:17.806Z,100230.13
2023-04-20T15:50:44.994Z,100214.41
2023-04-20T15:53:12.432Z,100229.84
2023-04-20T15:55:39.776Z,100223.97
2023-04-20T15:58:06.934Z,100224.03
2023-04-20T16:00:34.011Z,100223.50
2023-04-20T16:03:02.271Z,100223.16
2023-04-20T16:05:29.688Z,100214.63
2023-04-20T16:07:56.949Z,100232.06
2023-04-20T16:10:24.438Z,100216.59
2023-04-20T16:12:51.548Z,100231.88
2023-04-20T16:15:18.877Z,100227.72
2023-04-20T16:17:46.197Z,100232.88
2023-04-20T16:20:14.031Z,100227.44
2023-04-20T16:22:41.233Z,100233.34
2023-04-20T16:25:09.731Z,100231.47
2023-04-20T16:27:36.946Z,100236.72
2023-04-20T16:30:04.455Z,100237.13
2023-04-20T16:32:31.664Z,100235.88
2023-04-20T16:34:58.806Z,100235.22
2023-04-20T16:37:26.048Z,100226.75
2023-04-20T16:39:53.075Z,100226.47
2023-04-20T16:42:20.171Z,100230.19
2023-04-20T16:44:47.247Z,100226.91
2023-04-20T16:47:14.294Z,100229.59
2023-04-20T16:49:41.418Z,100237.19
2023-04-20T16:52:10.608Z,100241.03
2023-04-20T16:54:37.703Z,100240.75
2023-04-20T16:57:04.771Z,100238.16
2023-04-20T16:59:31.889Z,100237.69
2023-04-20T17:01:59.086Z,100237.91
2023-04-20T17:04:26.331Z,100240.47
2023-04-20T17:06:53.605Z,100234.97
2023-04-20T17:09:21.194Z,100234.66
2023-04-20T17:11:48.457Z,100243.41
2023-04-20T17:14:16.209Z,100240.75
2023-04-20T17:16:43.430Z,100244.22
2023-04-20T17:19:10.559Z,100248.69
2023-04-20T17:21:37.952Z,100249.81
2023-04-20T17:24:05.156Z,100250.09
2023-04-20T17:26:32.213Z,100249.19
2023-04-20T17:28:59.339Z,100246.41
2023-04-20T17:31:26.637Z,100252.69
2023-04-20T17:33:53.820Z,100249.59
2023-04-20T17:36:20.977Z,100256.75
2023-04-20T17:38:48.138Z,100255.97
2023-04-20T17:41:15.297Z,100266.84
2023-04-20T17:43:42.389Z,100262.81
2023-04-20T17:46:09.597Z,100273.03
2023-04-20T17:48:36.758Z,100278.00
2023-04-20T17:51:04.045Z,100275.75
2023-04-20T17:53:31.127Z,100276.44
2023-04-20T17:55:58.154Z,100274.38
2023-04-20T17:58:25.257Z,100274.53
2023-04-20T18:00:52.345Z,100268.38
2023-04-20T18:03:20.276Z,100276.31
2023-04-20T18:05:47.518Z,100279.25
2023-04-20T18:08:15.647Z,100278.72
2023-04-20T18:10:42.709Z,100283.88
2023-04-20T18:13:10.107Z,100283.38
2023-04-20T18:15:37.239Z,100289.34
2023-04-20T18:18:04.496Z,100283.94
2023-04-20T18:20:32.602Z,100286.63
2023-04-20T18:22:59.857Z,100294.69
2023-04-20T18:25:27.106Z,100286.47
2023-04-20T18:27:54.263Z,100289.78
2023-04-20T18:30:21.462Z,100291.91
2023-04-20T18:32:48.655Z,100296.31
2023-04-20T18:35:15.877Z,100303.63
2023-04-20T18:37:42.997Z,100303.31
2023-04-20T18:40:10.572Z,100298.75
2023-04-20T18:42:37.698Z,100292.91
2023-04-20T18:45:06.311Z,100301.59
2023-04-20T18:47:33.854Z,100299.38
2023-04-20T18:50:01.021Z,100304.97
2023-04-20T18:52:28.177Z,100305.56
2023-04-20T18:54:55.606Z,100290.34
2023-04-20T18:57:26.344Z,100298.88
2023-04-20T18:59:53.572Z,100301.69
2023-04-20T19:02:20.907Z,100301.53
2023-04-20T19:04:48.097Z,100297.78
2023-04-20T19:07:15.348Z,100299.53
2023-04-20T19:09:42.602Z,100295.19
2023-04-20T19:12:09.817Z,100305.16
2023-04-20T19:14:37.083Z,100312.09
2023-04-20T19:17:06.628Z,100313.06
2023-04-20T19:19:33.990Z,100308.97
2023-04-20T19:22:01.889Z,100314.13
2023-04-20T19:24:29.299Z,100310.59
2023-04-20T19:26:56.389Z,100300.31
2023-04-20T19:29:23.476Z,100305.75
2023-04-20T19:31:50.589Z,100297.56
2023-04-20T19:34:18.016Z,100296.03
2023-04-20T19:36:45.421Z,100294.16
2023-04-20T19:39:12.521Z,100295.22
2023-04-20T19:41:39.674Z,100290.44
2023-04-20T19:44:06.807Z,100293.53
2023-04-20T19:46:34.269Z,100284.94
2023-04-20T19:49:01.590Z,100292.00
2023-04-20T19:51:29.084Z,100297.94
2023-04-20T19:53:56.605Z,100298.97
2023-04-20T19:56:23.664Z,100291.88
2023-04-20T19:58:50.720Z,100297.59
2023-04-20T20:01:18.179Z,100292.84
2023-04-20T20:03:45.443Z,100289.75
2023-04-20T20:06:12.721Z,100291.56
2023-04-20T20:08:39.932Z,100292.94
2023-04-20T20:11:07.111Z,100287.13
2023-04-20T20:13:34.161Z,100289.69
2023-04-20T20:16:01.276Z,100286.97
2023-04-20T20:18:28.419Z,100291.84
2023-04-20T20:20:55.517Z,100283.47
2023-04-20T20:23:22.679Z,100286.59
2023-04-20T20:25:49.753Z,100289.19
2023-04-20T20:28:16.830Z,100295.53
2023-04-20T20:30:45.451Z,100299.97
2023-04-20T20:33:13.200Z,100299.16
2023-04-20T20:35:40.986Z,100299.31
2023-04-20T20:38:08.933Z,100301.09
2023-04-20T20:40:36.211Z,100295.81
2023-04-20T20:43:06.609Z,100292.75
2023-04-20T20:45:33.738Z,100294.84
2023-04-20T20:48:01.246Z,100304.22
2023-04-20T20:50:28.489Z,100303.91
2023-04-20T20:52:55.534Z,100306.19
2023-04-20T20:55:22.690Z,100300.94
2023-04-20T20:57:49.764Z,100297.84
2023-04-20T21:00:17.017Z,100298.56
2023-04-20T21:02:44.640Z,100298.31
2023-04-20T21:05:11.860Z,100297.59
2023-04-20T21:07:39.429Z,100299.19
2023-04-20T21:10:06.911Z,100305.06
2023-04-20T21:12:34.131Z,100298.13
2023-04-20T21:15:01.363Z,100294.00
2023-04-20T21:17:28.598Z,100298.31
2023-04-20T21:19:55.681Z,100294.78
2023-04-20T21:22:23.306Z,100290.84
2023-04-20T21:24:50.638Z,100291.63
2023-04-20T21:27:17.732Z,100291.25
2023-04-20T21:29:44.778Z,100295.72
2023-04-20T21:32:11.852Z,100297.53
2023-04-20T21:34:38.996Z,100290.31
2023-04-20T21:37:06.153Z,100292.75
2023-04-20T21:39:33.525Z,100288.59
2023-04-20T21:42:01.583Z,100294.50
2023-04-20T21:44:28.917Z,100285.88
2023-04-20T21:46:56.064Z,100285.94
2023-04-20T21:49:23.299Z,100288.22
2023-04-20T21:51:50.326Z,100289.50
2023-04-20T21:54:17.376Z,100282.97
2023-04-20T21:56:44.539Z,100284.06
2023-04-20T21:59:11.595Z,100278.41
2023-04-20T22:01:38.855Z,100284.31
2023-04-20T22:04:06.160Z,100278.72
2023-04-20T22:06:33.436Z,100272.56
2023-04-20T22:09:00.444Z,100276.56
2023-04-20T22:11:28.027Z,100275.28
2023-04-20T22:13:57.326Z,100267.81
2023-04-20T22:16:24.517Z,100273.47
2023-04-20T22:18:51.704Z,100272.16
2023-04-20T22:21:18.741Z,100266.47
2023-04-20T22:23:45.844Z,100265.25
2023-04-20T22:26:12.965Z,100272.59
2023-04-20T22:28:40.092Z,100263.09
2023-04-20T22:31:07.179Z,100262.13
2023-04-20T22:33:34.480Z,100255.47
2023-04-20T22:36:01.549Z,100254.44
2023-04-20T22:38:28.639Z,100254.75
2023-04-20T22:40:55.691Z,100254.16
2023-04-20T22:43:22.872Z,100256.41
2023-04-20T22:45:49.949Z,100247.84
2023-04-20T22:48:17.669Z,100258.72
2023-04-20T22:50:44.733Z,100253.19
2023-04-20T22:53:13.638Z,100256.94
2023-04-20T22:55:42.014Z,100259.09
2023-04-20T22:58:09.224Z,100254.59
2023-04-20T23:00:36.324Z,100260.16
2023-04-20T23:03:03.581Z,100261.41
2023-04-20T23:05:30.796Z,100263.78
2023-04-20T23:07:57.818Z,100256.78
2023-04-20T23:10:28.839Z,100250.03
2023-04-20T23:12:56.124Z,100250.72
2023-04-20T23:15:23.240Z,100251.84
2023-04-20T23:17:50.950Z,100254.56
2023-04-20T23:20:18.143Z,100251.97
2023-04-20T23:22:45.532Z,100246.81
2023-04-20T23:25:12.631Z,100249.34
2023-04-20T23:27:39.703Z,100233.44
2023-04-20T23:30:07.474Z,100229.22
2023-04-20T23:32:34.692Z,100237.47
2023-04-20T23:35:01.957Z,100234.09
2023-04-20T23:37:29.076Z,100239.13
2023-04-20T23:39:56.166Z,100246.38
2023-04-20T23:42:23.208Z,100235.66
2023-04-20T23:44:50.461Z,100241.28
2023-04-20T23:47:17.769Z,100243.28
2023-04-20T23:49:44.792Z,100237.97
2023-04-20T23:52:11.845Z,100238.75
2023-04-20T23:54:38.941Z,100226.88
2023-04-20T23:57:06.043Z,100236.09
2023-04-20T23:59:34.564Z,100234.28
